Flight Track Log - Related Links

Times and Time Zones

All times are in EDT time to prevent confusion due to time zone crossing. See the UPS1122 flight status page for this flight to view local times or setup timezone preferences in your user account.

Time Position Orientation Groundspeed Altitude Reporting Facility
EDT Latitude Longitude Course Direction KTS MPH feet Rate Location/Type
Sat 04:41:07 38.1690 -85.7250 142° Southeast 165 190 300  Level FlightAware ADS-B
Sat 04:41:32 38.1520 -85.7190 164° South 154 177 1,600 2,182 Climbing FlightAware ADS-B
Sat 04:42:02 38.1290 -85.7110 165° South 198 228 2,300 2,100 Climbing FlightAware ADS-B
Sat 04:42:32 38.1000 -85.7020 166° South 211 243 3,700 2,291 Climbing FlightAware ADS-B
Sat 04:42:57 38.0790 -85.6840 146° Southeast 236 272 4,400 1,800 Climbing FlightAware ADS-B
Sat 04:43:12 38.0720 -85.6630 113° Southeast 248 285 4,900 2,618 Climbing FlightAware ADS-B
Sat 04:43:52 38.0660 -85.6030 97° East 256 295 6,800 2,657 Climbing FlightAware ADS-B
Sat 04:44:22 38.0620 -85.5580 96° East 266 306 8,000 2,182 Climbing FlightAware ADS-B
Sat 04:44:47 38.0590 -85.5190 96° East 279 321 8,800 2,073 Climbing FlightAware ADS-B
Sat 04:45:17 38.0540 -85.4700 97° East 291 335 9,900 1,600 Climbing FlightAware ADS-B
Sat 04:46:02 38.0460 -85.3850 97° East 338 389 10,800 1,341 Climbing FlightAware ADS-B
Sat 04:46:42 38.0390 -85.3020 96° East 365 420 11,800 2,025 Climbing FlightAware ADS-B
Sat 04:47:22 38.0320 -85.2170 96° East 371 427 13,500 2,329 Climbing FlightAware ADS-B
Sat 04:48:07 38.0240 -85.1180 96° East 382 440 15,100 1,765 Climbing FlightAware ADS-B
Sat 04:48:47 38.0170 -85.0270 96° East 405 466 16,000 1,694 Climbing FlightAware ADS-B
Sat 04:49:32 38.0070 -84.9130 96° East 416 479 17,500 1,976 Climbing FlightAware ADS-B
Sat 04:50:12 37.9990 -84.8180 96° East 427 491 18,800 1,950 Climbing FlightAware ADS-B
Sat 04:50:52 37.9900 -84.7220 97° East 437 503 20,100 1,976 Climbing FlightAware ADS-B
Sat 04:51:37 37.9790 -84.6000 96° East 452 520 21,600 1,860 Climbing FlightAware ADS-B
Sat 04:52:32 37.9820 -84.4550 88° East 454 522 23,200 1,642 Climbing FlightAware ADS-B
Sat 04:53:12 38.0250 -84.3590 60° Northeast 459 528 24,200 1,500 Climbing FlightAware ADS-B
Sat 04:53:52 38.0730 -84.2650 57° Northeast 470 541 25,200 988 Climbing FlightAware ADS-B
Sat 04:54:37 38.1190 -84.1730 58° Northeast 477 549 25,600 1,400 Climbing FlightAware ADS-B
Sat 04:55:22 38.1790 -84.0510 58° Northeast 495 570 27,300 1,389 Climbing FlightAware ADS-B
Sat 04:56:12 38.2360 -83.9370 57° Northeast 500 575 27,800 300 Climbing FlightAware ADS-B
Sat 04:57:02 38.2890 -83.8320 57° Northeast 500 575 27,800  Level FlightAware ADS-B
Sat 04:57:42 38.3320 -83.7480 57° Northeast 500 575 27,800 2,274 Level FlightAware ADS-B
Sat 04:58:37 38.4170 -83.5650 59° Northeast 512 589 31,400 2,274 Climbing FlightAware ADS-B
Sat 04:59:17 38.4590 -83.4780 58° Northeast 512 589 31,400 1,129 Level FlightAware ADS-B
Sat 05:00:02 38.5250 -83.3430 58° Northeast 512 589 33,000 1,200 Climbing FlightAware ADS-B
Sat 05:00:37 38.5660 -83.2580 58° Northeast 512 589 33,000  Level FlightAware ADS-B
Sat 05:01:17 38.6210 -83.1440 58° Northeast 530 610 33,000  Level FlightAware ADS-B
Sat 05:02:07 38.6890 -83.0050 58° Northeast 537 618 33,000  Level FlightAware ADS-B
Sat 05:02:52 38.7460 -82.8860 58° Northeast 538 619 33,000  Level FlightAware ADS-B
Sat 05:03:32 38.7910 -82.7940 58° Northeast 538 619 33,000  Level FlightAware ADS-B
Sat 05:04:22 38.8590 -82.6510 59° Northeast 536 617 33,000  Level FlightAware ADS-B
Sat 05:05:12 38.9280 -82.5030 59° Northeast 536 617 33,000  Level FlightAware ADS-B
Sat 05:05:52 38.9790 -82.3940 59° Northeast 535 616 33,000  Level FlightAware ADS-B
Sat 05:06:37 39.0360 -82.2740 59° Northeast 535 616 33,000  Level FlightAware ADS-B
Sat 05:07:17 39.0870 -82.1650 59° Northeast 534 615 33,000  Level FlightAware ADS-B
Sat 05:07:57 39.1400 -82.0530 59° Northeast 533 613 33,000  Level FlightAware ADS-B
Sat 05:08:42 39.1940 -81.9360 59° Northeast 534 615 33,000  Level FlightAware ADS-B
Sat 05:09:22 39.2470 -81.8220 59° Northeast 534 615 33,000  Level FlightAware ADS-B
Sat 05:10:07 39.3060 -81.6970 59° Northeast 533 613 33,000  Level FlightAware ADS-B
Sat 05:10:47 39.3540 -81.5920 59° Northeast 532 612 33,000  Level FlightAware ADS-B
Sat 05:11:27 39.4070 -81.4780 59° Northeast 531 611 33,000  Level FlightAware ADS-B
Sat 05:12:12 39.4630 -81.3570 59° Northeast 530 610 33,000  Level FlightAware ADS-B
Sat 05:12:52 39.5120 -81.2480 60° Northeast 530 610 33,000  Level FlightAware ADS-B
Sat 05:13:37 39.5700 -81.1220 59° Northeast 529 609 33,000  Level FlightAware ADS-B
Sat 05:14:17 39.6160 -81.0190 60° Northeast 529 609 33,000  Level FlightAware ADS-B
Sat 05:14:57 39.6670 -80.9060 60° Northeast 529 609 33,000  Level FlightAware ADS-B
Sat 05:15:42 39.7230 -80.7810 60° Northeast 530 610 33,000  Level FlightAware ADS-B
Sat 05:16:22 39.7730 -80.6700 60° Northeast 531 611 33,000  Level FlightAware ADS-B
Sat 05:17:17 39.8370 -80.5250 60° Northeast 531 611 33,000  Level FlightAware ADS-B
Sat 05:17:57 39.8860 -80.4170 59° Northeast 531 611 33,000  Level FlightAware ADS-B
Sat 05:18:32 39.9290 -80.3180 60° Northeast 530 610 33,000  Level FlightAware ADS-B
Sat 05:19:17 39.9800 -80.2030 60° Northeast 530 610 33,000  Level FlightAware ADS-B
Sat 05:20:07 40.0490 -80.0460 60° Northeast 524 603 33,000  Level FlightAware ADS-B
Sat 05:20:42 40.0880 -79.9550 61° Northeast 524 603 33,000  Level FlightAware ADS-B
Sat 05:21:27 40.1430 -79.8290 60° Northeast 521 600 33,000  Level FlightAware ADS-B
Sat 05:22:12 40.1970 -79.7050 60° Northeast 516 594 33,000  Level FlightAware ADS-B
Sat 05:22:52 40.2440 -79.5950 61° Northeast 512 589 33,000  Level FlightAware ADS-B
Sat 05:23:37 40.2950 -79.4790 60° Northeast 510 587 33,000  Level FlightAware ADS-B
Sat 05:24:17 40.3410 -79.3710 61° Northeast 509 586 33,000  Level FlightAware ADS-B
Sat 05:24:57 40.3850 -79.2690 60° Northeast 508 585 33,000  Level FlightAware ADS-B
Sat 05:25:42 40.4380 -79.1430 61° Northeast 506 582 33,000  Level FlightAware ADS-B
Sat 05:26:22 40.4860 -79.0310 61° Northeast 507 583 33,000  Level FlightAware ADS-B
Sat 05:27:07 40.5370 -78.9090 61° Northeast 507 583 33,000  Level FlightAware ADS-B
Sat 05:27:37 40.5680 -78.8340 61° Northeast 507 583 33,000  Level FlightAware ADS-B
Sat 05:28:27 40.6160 -78.7200 61° Northeast 506 582 33,000  Level FlightAware ADS-B
Sat 05:29:12 40.6670 -78.5980 61° Northeast 502 578 33,000  Level FlightAware ADS-B
Sat 05:29:52 40.7080 -78.4980 62° Northeast 501 577 33,000  Level FlightAware ADS-B
Sat 05:30:32 40.7520 -78.3920 61° Northeast 499 574 33,000  Level FlightAware ADS-B
Sat 05:31:17 40.8040 -78.2660 61° Northeast 494 568 33,000  Level FlightAware ADS-B
Sat 05:31:57 40.8460 -78.1640 61° Northeast 492 566 33,000  Level FlightAware ADS-B
Sat 05:32:37 40.8900 -78.0560 62° Northeast 491 565 33,000  Level FlightAware ADS-B
Sat 05:33:22 40.9390 -77.9390 61° Northeast 488 562 33,000  Level FlightAware ADS-B
Sat 05:34:02 40.9840 -77.8390 59° Northeast 485 558 33,000  Level FlightAware ADS-B
Sat 05:34:47 41.0380 -77.7190 59° Northeast 484 557 33,000  Level FlightAware ADS-B
Sat 05:35:08 41.0780 -77.6296 59° Northeast 484 557 33,000  Level FlightAware ADS-B
Sat 05:35:40 41.1152 -77.5456 60° Northeast 485 558 33,000  Level FlightAware ADS-B
Sat 05:36:29 41.1703 -77.4211 60° Northeast 485 558 33,000  Level FlightAware ADS-B
Sat 05:36:59 41.2042 -77.3442 60° Northeast 484 557 33,000  Level FlightAware ADS-B
Sat 05:37:30 41.2393 -77.2641 60° Northeast 484 557 33,000  Level FlightAware ADS-B
Sat 05:38:03 41.2765 -77.1795 60° Northeast 483 556 33,000  Level FlightAware ADS-B
Sat 05:38:35 41.3119 -77.0984 60° Northeast 482 555 33,000  Level FlightAware ADS-B
Sat 05:39:05 41.3458 -77.0205 60° Northeast 482 555 33,000  Level FlightAware ADS-B
Sat 05:39:37 41.3812 -76.9390 60° Northeast 480 552 33,000  Level FlightAware ADS-B
Sat 05:40:08 41.4154 -76.8607 60° Northeast 478 550 33,000  Level FlightAware ADS-B
Sat 05:40:15 41.4236 -76.8434 58° Northeast 477 549 33,000  Level FlightAware ADS-B
Sat 05:40:23 41.4334 -76.8238 56° Northeast 475 547 33,000  Level FlightAware ADS-B
Sat 05:40:53 41.4728 -76.7542 53° Northeast 469 540 33,000  Level FlightAware ADS-B
Sat 05:41:26 41.5198 -76.6827 49° Northeast 466 536 33,000  Level FlightAware ADS-B
Sat 05:41:57 41.5646 -76.6146 49° Northeast 466 536 33,000  Level FlightAware ADS-B
Sat 05:42:29 41.6101 -76.5458 48° Northeast 467 537 33,000  Level FlightAware ADS-B
Sat 05:42:59 41.6542 -76.4797 48° Northeast 467 537 33,000  Level FlightAware ADS-B
Sat 05:43:30 41.6978 -76.4142 48° Northeast 469 540 33,000  Level FlightAware ADS-B
Sat 05:44:00 41.7415 -76.3484 48° Northeast 470 541 33,000  Level FlightAware ADS-B
Sat 05:44:31 41.7864 -76.2807 48° Northeast 472 543 33,000  Level FlightAware ADS-B
Sat 05:45:01 41.8309 -76.2136 48° Northeast 473 544 33,000  Level FlightAware ADS-B
Sat 05:45:32 41.8749 -76.1471 48° Northeast 475 547 33,000  Level FlightAware ADS-B
Sat 05:46:03 41.9203 -76.0782 48° Northeast 475 547 33,000  Level FlightAware ADS-B
Sat 05:46:33 41.9649 -76.0106 48° Northeast 475 547 33,000  Level FlightAware ADS-B
Sat 05:47:08 42.0157 -75.9334 48° Northeast 476 548 33,000  Level FlightAware ADS-B
Sat 05:48:02 42.0710 -75.8480 49° Northeast 476 548 33,000  Level FlightAware ADS-B
Sat 05:48:42 42.1290 -75.7600 48° Northeast 476 548 33,000  Level FlightAware ADS-B
Sat 05:49:27 42.1980 -75.6550 48° Northeast 478 550 33,000 -141 Level FlightAware ADS-B
Sat 05:50:07 42.2730 -75.5390 49° Northeast 468 539 32,800 -525 Descending FlightAware ADS-B
Sat 05:50:47 42.3300 -75.4510 49° Northeast 457 526 32,300 -847 Descending FlightAware ADS-B
Sat 05:51:32 42.3930 -75.3520 49° Northeast 444 511 31,600 -1,341 Descending FlightAware ADS-B
Sat 05:52:12 42.4440 -75.2700 50° Northeast 441 507 30,400 -1,875 Descending FlightAware ADS-B
Sat 05:52:52 42.4690 -75.1630 72° East 444 511 29,100 -1,200 Descending FlightAware ADS-B
Sat 05:53:47 42.4740 -75.0440 87° East 444 511 28,500 -379 Descending FlightAware ADS-B
Sat 05:54:27 42.4810 -74.9490 84° East 444 511 28,500  Level FlightAware ADS-B
Sat 05:55:07 42.4870 -74.8550 85° East 444 511 28,500  Level FlightAware ADS-B
Sat 05:55:57 42.4940 -74.7370 85° East 444 511 28,500  Level FlightAware ADS-B
Sat 05:56:37 42.5000 -74.6430 85° East 444 511 28,500  Level FlightAware ADS-B
Sat 05:57:17 42.5060 -74.5480 85° East 444 511 28,500 -5,172 Level FlightAware ADS-B
Sat 05:58:04 42.4692 -74.3936 85° East 398 458 21,000 -4,991 Descending Boston Center
Sat 05:59:04 42.4447 -74.2239 101° East 387 445 19,600 -1,300 Descending Boston Center
Sat 06:00:04 42.4219 -74.0825 102° East 387 445 18,400 -955 Descending Boston Center
Sat 06:01:16 42.4008 -73.9442 102° East 387 445 17,500 -1,045 Descending Boston Center
Sat 06:02:16 42.3781 -73.7778 100° East 375 432 16,100 -1,290 Descending Boston Center
Sat 06:02:49 42.3661 -73.7103 103° East 366 421 15,500 -900 Descending Boston Center
Sat 06:03:16 42.3606 -73.6594 98° East 365 420 15,200 -1,082 Descending Boston Center
Sat 06:03:50 42.3447 -73.5694 103° East 358 412 14,400 -1,200 Descending Boston Center
Sat 06:04:16 42.3389 -73.5186 99° East 354 407 14,000 -984 Descending Boston Center
Sat 06:04:51 42.3231 -73.4397 105° East 352 405 13,400 -900 Descending Boston Center
Sat 06:05:16 42.3192 -73.3947 97° East 347 399 13,100 -1,100 Descending Boston Center
Sat 06:05:51 42.2950 -73.3186 113° Southeast 348 400 12,300 -1,200 Descending Boston Center
Sat 06:06:16 42.2764 -73.2958 138° Southeast 327 376 11,900 -1,377 Descending Boston Center
Sat 06:06:52 42.2203 -73.2475 147° Southeast 329 379 10,900 -1,800 Descending Boston Center
Sat 06:07:16 42.1956 -73.2192 140° Southeast 321 369 10,100 -2,200 Descending Boston Center
Sat 06:07:52 42.1519 -73.1850 150° Southeast 298 343 8,700 -2,200 Descending Boston Center
Sat 06:08:16 42.1356 -73.1653 138° Southeast 304 350 7,900 -2,066 Descending Boston Center
Sat 06:08:53 42.0858 -73.1228 148° Southeast 286 329 6,600 -1,900 Descending Boston Center
Sat 06:09:16 42.0631 -73.1000 143° Southeast 290 334 6,000 -1,377 Descending Boston Center
Sat 06:09:54 42.0236 -73.0661 147° Southeast 282 325 5,200 -1,300 Descending Boston Center
Sat 06:10:16 42.0069 -73.0492 143° Southeast 285 328 4,700 -1,100 Descending Boston Center
Sat 06:10:54 41.9550 -73.0097 151° Southeast 275 316 4,100 -700 Descending Boston Center
Sat 06:11:16 41.9489 -72.9983 126° Southeast 280 322 4,000 -787 Descending Boston Center
Sat 06:11:55 41.8928 -72.9506 148° Southeast 268 308 3,300 -1,000 Descending Boston Center
Sat 06:12:16 41.8825 -72.9336 129° Southeast 274 315 3,000 -200 Descending Boston Center
Sat 06:12:55 41.8514 -72.8917 135° Southeast 210 242 3,100  Climbing Boston Center
Sat 06:13:16 41.8514 -72.8889 90° East 254 292 3,000 -885 Descending Boston Center
Sat 06:13:56 41.8536 -72.8386 87° East 150 173 2,200 -1,100 Descending Boston Center
Sat 06:14:16 41.8578 -72.8247 68° East 155 178 1,900 -295 Descending Boston Center
Sat 06:14:57 41.8683 -72.7914 67° East 132 152 1,900 -100 Level Boston Center
Sat 06:15:16 41.8725 -72.7831 56° Northeast 126 145 1,800 -400 Descending Boston Center
Sat 06:15:57 41.8894 -72.7553 51° Northeast 126 145 1,500 -600 Descending Boston Center
Sat 06:16:16 41.8956 -72.7469 45° Northeast 120 138 1,200 -689 Descending Boston Center
Sat 06:16:58 41.9144 -72.7247 41° Northeast 123 142 800 -700 Descending Boston Center
Sat 06:17:16 41.9186 -72.7164 56° Northeast 120 138 500 -1,000 Descending Boston Center
Sat 06:19:00 41.9333 -72.6833 50° Northeast  Level FlightAware Approximate
Sat 06:26:00 41.9392 -72.6834 50° Northeast  Level Estimated
Sat 06:27:00 41.9333 -72.6833 50° Northeast  Level FlightAware Approximate

Login

Don't have an account? Register now (free) for customized features, flight alerts, and more!